Time;durP1;ratioP1;P1;durP2;ratioP2;P2;SDS_P1;SDS_P2;PMS_P1;PMS_P2;Temp;Humidity;BMP_temperature;BMP_pressure;BME280_temperature;BME280_humidity;BME280_pressure;Samples;Min_cycle;Max_cycle;Signal;HPM_P1;HPM_P2
2022/06/22 00:01:51;;;;;;;30.85;6.53;;;;;;;17.25;100.00;97412.50;5006445;28;20943;-58
2022/06/22 00:04:18;;;;;;;32.30;6.70;;;;;;;17.48;100.00;97422.13;5005214;28;20734;-58
2022/06/22 00:06:55;;;;;;;34.40;6.00;;;;;;;17.89;100.00;97420.66;5004482;28;20072;-57
2022/06/22 00:09:26;;;;;;;37.03;6.47;;;;;;;17.83;100.00;97431.69;5006212;28;20033;-59
2022/06/22 00:11:52;;;;;;;35.20;7.07;;;;;;;17.63;100.00;97424.50;5003006;28;20049;-57
2022/06/22 00:14:24;;;;;;;36.63;7.18;;;;;;;17.54;100.00;97439.25;5003513;28;20032;-58
2022/06/22 00:16:54;;;;;;;34.53;6.57;;;;;;;17.91;100.00;97450.38;5007563;28;20045;-58
2022/06/22 00:19:35;;;;;;;36.92;7.10;;;;;;;17.80;100.00;97445.09;5008694;28;20036;-57
2022/06/22 00:22:01;;;;;;;37.78;6.60;;;;;;;17.48;100.00;97448.47;5006264;28;20049;-57
2022/06/22 00:24:26;;;;;;;38.25;7.15;;;;;;;17.37;100.00;97461.66;5004662;28;20033;-57
2022/06/22 00:27:07;;;;;;;34.97;7.10;;;;;;;17.12;100.00;97463.53;5007150;28;20634;-56
2022/06/22 00:29:36;;;;;;;39.95;7.60;;;;;;;16.95;100.00;97461.34;5006574;28;20026;-56
2022/06/22 00:32:25;;;;;;;47.65;8.02;;;;;;;17.21;100.00;97450.63;5003094;28;20519;-56
2022/06/22 00:34:50;;;;;;;37.58;7.20;;;;;;;17.54;100.00;97447.97;5007156;28;20492;-56
2022/06/22 00:37:19;;;;;;;37.30;7.25;;;;;;;17.39;100.00;97441.28;5007728;28;20117;-56
2022/06/22 00:39:48;;;;;;;44.67;7.90;;;;;;;17.46;100.00;97431.94;5006344;28;20450;-56
2022/06/22 00:42:21;;;;;;;34.92;6.97;;;;;;;17.24;100.00;97430.13;5004721;28;20096;-57
2022/06/22 00:45:05;;;;;;;42.72;7.43;;;;;;;17.53;100.00;97425.22;5006092;28;20053;-56
2022/06/22 00:47:42;;;;;;;35.97;6.60;;;;;;;17.65;100.00;97419.94;5003648;28;20038;-57
2022/06/22 00:50:24;;;;;;;55.92;8.35;;;;;;;17.22;100.00;97424.16;5006761;28;20561;-56
2022/06/22 00:52:55;;;;;;;39.88;6.28;;;;;;;17.66;100.00;97424.25;5006927;28;20112;-56
2022/06/22 00:55:42;;;;;;;43.75;6.97;;;;;;;17.23;100.00;97422.34;5008797;28;20056;-57
2022/06/22 00:58:07;;;;;;;38.17;6.70;;;;;;;17.04;100.00;97422.91;5008361;28;20006;-56
2022/06/22 01:00:38;;;;;;;35.55;6.65;;;;;;;16.81;100.00;97422.00;5008338;28;21007;-57
2022/06/22 01:03:15;;;;;;;34.97;6.65;;;;;;;16.90;100.00;97416.06;5012662;28;20040;-57
2022/06/22 01:05:57;;;;;;;38.90;6.60;;;;;;;17.27;100.00;97407.97;5007802;28;20037;-56
2022/06/22 01:08:44;;;;;;;40.53;6.38;;;;;;;17.35;100.00;97405.59;5012249;28;20022;-56
2022/06/22 01:14:02;;;;;;;39.38;6.68;;;;;;;17.38;100.00;97400.06;5010161;28;20612;-56
2022/06/22 01:16:36;;;;;;;36.75;6.00;;;;;;;17.27;100.00;97392.16;5008180;28;20095;-58
2022/06/22 01:19:35;;;;;;;38.30;6.35;;;;;;;17.54;100.00;97394.41;5009417;28;20025;-56
2022/06/22 01:22:22;;;;;;;30.63;5.78;;;;;;;17.37;100.00;97390.47;5008941;28;20046;-56
2022/06/22 01:25:18;;;;;;;34.97;6.30;;;;;;;16.79;100.00;97387.03;5008166;28;20065;-57
2022/06/22 01:27:45;;;;;;;34.97;6.10;;;;;;;17.44;100.00;97393.47;5008701;28;20156;-57
2022/06/22 01:30:43;;;;;;;51.65;6.97;;;;;;;17.45;100.00;97380.16;5007568;28;20034;-56
2022/06/22 01:33:18;;;;;;;36.47;6.10;;;;;;;17.71;100.00;97374.63;5008427;28;20117;-56
2022/06/22 01:35:44;;;;;;;36.33;6.18;;;;;;;17.44;100.00;97373.22;5010026;28;20072;-57
2022/06/22 01:38:12;;;;;;;34.70;5.88;;;;;;;17.72;100.00;97377.13;5009693;28;20494;-57
2022/06/22 01:41:05;;;;;;;33.67;5.85;;;;;;;17.57;100.00;97382.78;5005284;28;20606;-57
2022/06/22 01:44:15;;;;;;;31.15;5.80;;;;;;;17.10;100.00;97381.13;5004818;28;20052;-57
2022/06/22 01:46:46;;;;;;;32.60;5.75;;;;;;;16.90;100.00;97397.63;4939800;28;20031;-56
2022/06/22 01:49:23;;;;;;;36.08;6.25;;;;;;;16.70;100.00;97381.50;4997883;28;20049;-56
2022/06/22 01:51:54;;;;;;;32.70;5.75;;;;;;;17.13;100.00;97375.63;5006923;28;20508;-56
2022/06/22 01:54:29;;;;;;;34.88;5.93;;;;;;;17.25;100.00;97379.09;5006696;28;20600;-57
2022/06/22 01:57:00;;;;;;;30.70;5.57;;;;;;;17.16;100.00;97374.53;5004681;28;20040;-58
2022/06/22 01:59:59;;;;;;;35.80;5.72;;;;;;;17.31;100.00;97375.13;5009744;28;20037;-56
2022/06/22 02:02:41;;;;;;;34.65;5.63;;;;;;;17.20;100.00;97391.78;5000377;28;20065;-57
2022/06/22 02:05:34;;;;;;;34.47;5.60;;;;;;;17.15;100.00;97384.25;5007755;28;20040;-56
2022/06/22 02:08:04;;;;;;;37.80;6.20;;;;;;;17.20;100.00;97388.31;5008385;28;20049;-56
2022/06/22 02:10:47;;;;;;;37.08;5.93;;;;;;;17.00;100.00;97395.97;5006578;28;20029;-56
2022/06/22 02:13:48;;;;;;;34.22;6.22;;;;;;;17.19;100.00;97394.56;5008877;28;20508;-56
2022/06/22 02:16:41;;;;;;;34.78;6.07;;;;;;;16.93;100.00;97394.78;5007207;28;20061;-58
2022/06/22 02:19:13;;;;;;;30.65;5.47;;;;;;;17.11;100.00;97398.63;5008022;28;20048;-59
2022/06/22 02:21:53;;;;;;;37.90;6.50;;;;;;;16.91;100.00;97392.25;5006311;28;20041;-58
2022/06/22 02:24:23;;;;;;;33.53;6.20;;;;;;;17.15;100.00;97392.16;5007511;28;20030;-58
2022/06/22 02:26:51;;;;;;;38.55;6.03;;;;;;;17.50;100.00;97393.81;5007831;28;20041;-56
2022/06/22 02:29:21;;;;;;;35.08;6.00;;;;;;;17.33;100.00;97392.53;5008163;28;20033;-57
2022/06/22 02:31:47;;;;;;;31.92;5.75;;;;;;;17.18;100.00;97393.69;5007855;28;20038;-57
2022/06/22 02:34:16;;;;;;;36.30;6.05;;;;;;;17.30;100.00;97392.75;5007751;28;20026;-57
2022/06/22 02:36:45;;;;;;;38.05;6.15;;;;;;;17.32;100.00;97392.63;5006024;28;20119;-57
2022/06/22 02:39:13;;;;;;;35.33;5.43;;;;;;;17.25;100.00;97380.91;5006758;28;20046;-57
2022/06/22 02:44:31;;;;;;;33.63;5.72;;;;;;;17.45;100.00;97369.63;5005823;28;20039;-56
2022/06/22 02:46:59;;;;;;;43.13;6.43;;;;;;;17.43;100.00;97376.81;5008233;28;20045;-56
2022/06/22 02:49:30;;;;;;;38.35;5.65;;;;;;;17.41;100.00;97384.00;5009236;28;20131;-58
2022/06/22 02:51:59;;;;;;;38.13;5.80;;;;;;;17.47;100.00;97372.97;5004805;28;20037;-61
2022/06/22 02:54:35;;;;;;;30.75;5.47;;;;;;;17.48;100.00;97369.38;5008948;28;20025;-56
2022/06/22 02:57:26;;;;;;;43.20;6.28;;;;;;;17.02;100.00;97370.34;5006485;28;20044;-57
2022/06/22 02:59:51;;;;;;;37.88;6.00;;;;;;;17.14;100.00;97366.75;5008081;28;20026;-57
2022/06/22 03:02:21;;;;;;;34.30;6.00;;;;;;;17.10;100.00;97360.03;5005591;28;20107;-57
2022/06/22 03:04:47;;;;;;;32.47;5.45;;;;;;;17.33;100.00;97365.31;5006921;28;20026;-57
2022/06/22 03:07:14;;;;;;;31.30;5.35;;;;;;;17.15;100.00;97368.44;5013341;28;20201;-60
2022/06/22 03:09:40;;;;;;;33.17;5.38;;;;;;;17.18;100.00;97366.50;5002677;28;20033;-57
2022/06/22 03:12:06;;;;;;;35.08;5.82;;;;;;;17.36;100.00;97372.97;5005795;28;20045;-57
2022/06/22 03:14:58;;;;;;;28.75;5.25;;;;;;;17.57;100.00;97378.38;5005949;28;20057;-57
2022/06/22 03:17:42;;;;;;;30.58;5.25;;;;;;;17.13;100.00;97382.69;5006533;28;20030;-57
2022/06/22 03:20:21;;;;;;;48.55;7.00;;;;;;;17.35;100.00;97392.41;5005851;28;20365;-55
2022/06/22 03:23:12;;;;;;;32.63;5.80;;;;;;;17.33;100.00;97381.97;5006299;28;20040;-57
2022/06/22 03:25:47;;;;;;;30.35;5.63;;;;;;;17.59;100.00;97388.78;5006596;28;20029;-58
2022/06/22 03:28:24;;;;;;;33.47;5.50;;;;;;;17.87;100.00;97380.38;5007962;28;20303;-57
2022/06/22 03:30:57;;;;;;;39.72;6.03;;;;;;;17.99;100.00;97383.81;5003205;28;20053;-57
2022/06/22 03:33:51;;;;;;;35.55;5.70;;;;;;;17.65;100.00;97381.22;5007668;28;20292;-58
2022/06/22 03:36:31;;;;;;;36.53;5.88;;;;;;;18.00;100.00;97384.66;5005489;28;20116;-58
2022/06/22 03:39:04;;;;;;;32.72;5.82;;;;;;;17.83;100.00;97383.34;5005429;28;20124;-57
2022/06/22 03:41:34;;;;;;;35.83;5.95;;;;;;;17.85;100.00;97381.47;5003330;28;20042;-57
2022/06/22 03:44:02;;;;;;;35.95;5.70;;;;;;;18.09;100.00;97390.03;5006439;28;20079;-57
2022/06/22 03:46:35;;;;;;;31.05;5.20;;;;;;;18.39;100.00;97385.00;5004548;28;20522;-57
2022/06/22 03:49:19;;;;;;;33.65;5.40;;;;;;;18.72;100.00;97393.72;5005025;28;20017;-57
2022/06/22 03:51:51;;;;;;;31.67;5.30;;;;;;;18.90;100.00;97389.56;5004143;28;20883;-57
2022/06/22 03:54:31;;;;;;;31.58;5.30;;;;;;;18.96;100.00;97386.38;5004962;28;20030;-56
2022/06/22 03:57:01;;;;;;;26.60;4.70;;;;;;;18.87;100.00;97385.34;5005523;28;20060;-57
2022/06/22 03:59:27;;;;;;;37.58;5.80;;;;;;;18.83;100.00;97377.81;5006201;28;20049;-57
2022/06/22 04:01:56;;;;;;;32.03;5.40;;;;;;;19.11;99.16;97386.03;5005122;28;20037;-57
2022/06/22 04:04:23;;;;;;;30.85;4.85;;;;;;;19.30;97.66;97386.16;5004086;28;20030;-57
2022/06/22 04:06:53;;;;;;;32.15;5.20;;;;;;;19.35;94.40;97383.09;5003795;28;20647;-57
2022/06/22 04:09:24;;;;;;;35.67;5.60;;;;;;;19.51;94.57;97383.44;5005781;28;20074;-58
2022/06/22 04:12:09;;;;;;;40.42;5.75;;;;;;;19.44;93.79;97387.56;5007214;28;20034;-58
2022/06/22 04:14:50;;;;;;;30.33;5.35;;;;;;;19.58;92.82;97389.88;5005337;28;20034;-58
2022/06/22 04:17:28;;;;;;;33.70;5.22;;;;;;;19.36;92.75;97396.19;5003869;28;20030;-59
2022/06/22 04:20:13;;;;;;;35.20;5.53;;;;;;;19.98;87.77;97390.84;5005171;28;20080;-57
2022/06/22 04:22:43;;;;;;;33.80;5.18;;;;;;;19.64;90.96;97399.06;5004349;28;20048;-58
2022/06/22 04:25:16;;;;;;;32.50;5.00;;;;;;;19.89;87.86;97389.84;5008075;28;20034;-57
2022/06/22 04:27:48;;;;;;;33.33;5.43;;;;;;;19.40;94.18;97392.28;5009231;28;20061;-57
2022/06/22 04:30:19;;;;;;;30.33;4.85;;;;;;;19.46;94.71;97390.91;5007269;28;20407;-57
2022/06/22 04:32:50;;;;;;;32.20;4.97;;;;;;;19.22;97.26;97393.88;5009785;28;20025;-57
2022/06/22 04:35:37;;;;;;;33.42;5.22;;;;;;;19.49;97.57;97403.88;5010870;28;20132;-59
2022/06/22 04:38:23;;;;;;;33.17;5.30;;;;;;;19.24;98.82;97397.22;5010091;28;20029;-57
2022/06/22 04:40:51;;;;;;;34.88;5.43;;;;;;;19.73;96.75;97398.28;5008017;28;20041;-57
2022/06/22 04:43:17;;;;;;;34.85;5.63;;;;;;;19.39;96.96;97401.22;5008316;28;20068;-57
2022/06/22 04:45:45;;;;;;;36.75;5.35;;;;;;;20.18;87.43;97392.53;5008666;28;20667;-58
2022/06/22 04:48:20;;;;;;;34.58;5.20;;;;;;;19.93;88.44;97398.34;5010867;28;20534;-57
2022/06/22 04:50:48;;;;;;;32.72;5.30;;;;;;;20.80;84.95;97405.50;5007833;28;20041;-57
2022/06/22 04:53:23;;;;;;;31.85;5.30;;;;;;;22.07;75.11;97400.53;5009142;28;20041;-59
2022/06/22 04:55:51;;;;;;;35.00;5.18;;;;;;;22.74;71.46;97384.25;5008368;28;20072;-57
2022/06/22 04:58:32;;;;;;;35.65;5.72;;;;;;;24.27;58.37;97377.34;5007796;28;20427;-58
2022/06/22 05:00:59;;;;;;;28.25;5.13;;;;;;;25.06;57.23;97372.34;5006711;28;20253;-59
2022/06/22 05:03:24;;;;;;;28.10;4.57;;;;;;;24.15;59.84;97374.16;5009125;28;20076;-58
2022/06/22 05:05:50;;;;;;;25.67;4.72;;;;;;;24.64;56.86;97378.72;5009595;28;20112;-58
2022/06/22 05:08:23;;;;;;;32.25;5.35;;;;;;;25.67;53.78;97387.88;5010991;28;20117;-59
2022/06/22 05:10:57;;;;;;;30.17;4.68;;;;;;;26.97;48.97;97398.75;5006174;28;20065;-57
2022/06/22 05:13:38;;;;;;;28.92;4.85;;;;;;;26.66;47.65;97402.34;5009873;28;20022;-59
2022/06/22 05:16:06;;;;;;;24.83;4.22;;;;;;;28.18;44.82;97404.75;5008658;28;20037;-58
2022/06/22 05:18:38;;;;;;;25.52;4.80;;;;;;;27.36;45.60;97392.34;5006385;28;20022;-58
2022/06/22 05:21:12;;;;;;;19.70;4.07;;;;;;;27.41;46.06;97389.13;5009006;28;20044;-58
2022/06/22 05:23:40;;;;;;;22.65;4.40;;;;;;;27.36;44.60;97387.00;5009034;28;20554;-59
2022/06/22 05:26:09;;;;;;;21.30;4.35;;;;;;;29.30;42.49;97383.69;5007634;28;20088;-58
2022/06/22 05:29:06;;;;;;;28.10;5.15;;;;;;;31.28;38.34;97378.19;4989688;28;20159;-59
2022/06/22 05:31:38;;;;;;;27.20;5.05;;;;;;;32.62;36.80;97386.59;4993199;28;20483;-59
2022/06/22 05:34:12;;;;;;;17.73;4.13;;;;;;;32.59;36.30;97378.91;5007926;28;20510;-58
2022/06/22 05:36:43;;;;;;;22.85;4.60;;;;;;;32.79;35.85;97382.31;5007348;28;20045;-59
2022/06/22 05:39:09;;;;;;;19.20;4.13;;;;;;;31.80;36.25;97389.03;5008300;28;20545;-58
2022/06/22 05:41:44;;;;;;;20.05;4.28;;;;;;;32.19;35.91;97390.78;5006774;28;20631;-58
2022/06/22 05:44:13;;;;;;;16.80;4.05;;;;;;;32.17;36.28;97394.75;5010499;28;20095;-58
2022/06/22 05:46:45;;;;;;;21.02;4.35;;;;;;;33.14;34.72;97392.63;5009522;28;20749;-59
2022/06/22 05:49:16;;;;;;;17.27;3.80;;;;;;;33.41;33.40;97395.06;5006604;28;20042;-59
2022/06/22 05:51:53;;;;;;;16.45;3.70;;;;;;;31.24;37.52;97402.03;5007412;28;20038;-59
2022/06/22 05:54:26;;;;;;;17.75;3.85;;;;;;;33.36;34.05;97392.19;5009354;28;20048;-60
2022/06/22 05:57:04;;;;;;;16.30;3.78;;;;;;;31.82;36.42;97397.78;5007175;28;20030;-59
2022/06/22 05:59:37;;;;;;;17.75;3.83;;;;;;;32.22;35.96;97392.22;5008865;28;20021;-59
2022/06/22 06:02:10;;;;;;;16.90;3.72;;;;;;;33.43;34.32;97384.84;5005235;28;20041;-59
2022/06/22 06:05:05;;;;;;;17.27;3.85;;;;;;;33.16;34.47;97382.44;5007533;28;20030;-61
2022/06/22 06:07:37;;;;;;;19.40;3.75;;;;;;;33.21;34.31;97384.44;5004695;28;20822;-60
2022/06/22 06:10:14;;;;;;;24.75;5.00;;;;;;;31.59;35.83;97398.25;5006199;28;20025;-59
2022/06/22 06:12:48;;;;;;;14.82;3.45;;;;;;;33.40;34.24;97388.03;5007328;28;20067;-60
2022/06/22 06:15:14;;;;;;;14.15;3.40;;;;;;;33.47;34.43;97382.53;5008684;28;20123;-59
2022/06/22 06:17:46;;;;;;;16.13;3.70;;;;;;;33.08;34.77;97389.97;5007602;28;20017;-58
2022/06/22 06:20:28;;;;;;;20.88;4.28;;;;;;;32.72;35.59;97381.53;5005894;28;20034;-59
2022/06/22 06:23:00;;;;;;;16.58;3.50;;;;;;;33.11;35.23;97387.63;5007776;28;20742;-59
2022/06/22 06:28:28;;;;;;;14.45;3.85;;;;;;;29.65;39.86;97386.34;5007252;28;20088;-59
2022/06/22 06:31:03;;;;;;;13.45;3.50;;;;;;;31.55;37.58;97392.47;5005640;28;20073;-59
2022/06/22 06:33:34;;;;;;;16.75;3.72;;;;;;;31.39;37.57;97391.00;5007425;28;20081;-60
2022/06/22 06:36:33;;;;;;;17.57;4.13;;;;;;;30.84;39.45;97396.66;5007678;28;20480;-59
2022/06/22 06:39:05;;;;;;;14.23;3.53;;;;;;;32.25;36.92;97387.22;5007246;28;20773;-59
2022/06/22 06:42:03;;;;;;;14.13;3.50;;;;;;;31.59;38.18;97387.47;5006834;28;20048;-59
2022/06/22 06:44:31;;;;;;;19.33;3.55;;;;;;;31.33;38.25;97378.41;5007707;28;21122;-59
2022/06/22 06:47:05;;;;;;;16.88;3.80;;;;;;;32.29;37.62;97382.19;5005349;28;20177;-59
2022/06/22 06:49:44;;;;;;;16.60;3.95;;;;;;;32.65;35.81;97376.19;5005731;28;20402;-58
2022/06/22 06:52:32;;;;;;;17.85;3.80;;;;;;;33.25;35.00;97374.88;5005696;28;20042;-59
2022/06/22 06:55:08;;;;;;;19.38;3.97;;;;;;;33.06;35.63;97378.53;5006808;28;20026;-60
2022/06/22 06:57:37;;;;;;;14.98;3.92;;;;;;;33.90;35.52;97384.34;5007616;28;20038;-61
2022/06/22 07:00:06;;;;;;;21.00;4.65;;;;;;;32.82;36.93;97384.56;5008235;28;20474;-59
2022/06/22 07:02:35;;;;;;;18.38;4.18;;;;;;;34.17;34.25;97382.97;5005258;28;20164;-59
2022/06/22 07:05:05;;;;;;;18.85;3.95;;;;;;;34.01;34.09;97377.34;5007761;28;20095;-59
2022/06/22 07:07:40;;;;;;;16.95;4.07;;;;;;;36.10;32.47;97383.44;5005252;28;20048;-59
2022/06/22 07:10:17;;;;;;;22.90;5.93;;;;;;;35.02;33.21;97382.97;5006378;28;20018;-60
2022/06/22 07:12:49;;;;;;;17.05;4.18;;;;;;;35.62;32.31;97384.56;5005395;28;20041;-60
2022/06/22 07:15:26;;;;;;;12.10;3.25;;;;;;;35.57;32.38;97362.75;5006781;28;20459;-59
2022/06/22 07:17:54;;;;;;;14.32;3.58;;;;;;;34.88;33.32;97369.63;5007666;28;20026;-60
2022/06/22 07:20:30;;;;;;;17.15;4.28;;;;;;;33.78;34.96;97373.44;5004371;28;20088;-59
2022/06/22 07:23:03;;;;;;;14.02;3.47;;;;;;;34.99;34.99;97378.00;5006170;28;20026;-59
2022/06/22 07:25:39;;;;;;;16.75;3.70;;;;;;;36.10;33.21;97375.28;5005127;28;20034;-59
2022/06/22 07:28:15;;;;;;;14.55;3.72;;;;;;;33.51;35.49;97384.56;5006174;28;20044;-60
2022/06/22 07:30:47;;;;;;;13.10;3.80;;;;;;;36.18;32.57;97385.78;5005796;28;20045;-59
2022/06/22 07:33:21;;;;;;;13.82;3.42;;;;;;;37.00;32.89;97373.63;5005766;28;20071;-59
2022/06/22 07:35:59;;;;;;;18.23;3.70;;;;;;;34.94;34.28;97381.41;5005745;28;20444;-59
2022/06/22 07:38:33;;;;;;;13.68;3.72;;;;;;;34.36;34.90;97385.63;5007538;28;20025;-61
2022/06/22 07:43:52;;;;;;;13.43;3.60;;;;;;;36.13;33.09;97380.22;5004317;28;20091;-60
2022/06/22 07:46:28;;;;;;;13.90;3.83;;;;;;;36.86;31.82;97380.47;5004616;28;20041;-58
2022/06/22 07:49:01;;;;;;;16.08;3.75;;;;;;;36.72;31.56;97379.13;5005788;28;20034;-58
2022/06/22 07:51:30;;;;;;;11.70;3.58;;;;;;;36.21;32.44;97379.88;5004348;28;20061;-57
2022/06/22 07:54:09;;;;;;;12.40;3.53;;;;;;;37.87;30.82;97378.66;5006247;28;20470;-60
2022/06/22 07:56:46;;;;;;;14.48;3.95;;;;;;;37.88;31.15;97374.84;5004515;28;20625;-59
2022/06/22 07:59:25;;;;;;;14.65;3.97;;;;;;;40.67;27.66;97369.84;5001423;28;20047;-58
2022/06/22 08:01:56;;;;;;;18.58;4.43;;;;;;;36.33;31.28;97377.09;5004451;28;20045;-57
2022/06/22 08:04:27;;;;;;;15.52;4.03;;;;;;;37.24;30.41;97370.75;5004699;28;20033;-57
2022/06/22 08:06:59;;;;;;;11.82;3.50;;;;;;;35.97;32.50;97368.25;5005144;28;20052;-58
2022/06/22 08:09:57;;;;;;;12.95;3.63;;;;;;;36.72;32.34;97376.41;5005459;28;20025;-58
2022/06/22 08:12:29;;;;;;;11.00;3.63;;;;;;;35.87;32.66;97368.84;4999757;28;20045;-59
2022/06/22 08:14:55;;;;;;;16.63;3.75;;;;;;;33.19;36.57;97370.34;5005143;28;20323;-57
2022/06/22 08:17:34;;;;;;;13.80;3.65;;;;;;;35.63;34.17;97378.09;5004160;28;20033;-58
2022/06/22 08:19:59;;;;;;;15.20;4.20;;;;;;;35.67;33.49;97369.22;5003535;28;20325;-58
2022/06/22 08:22:25;;;;;;;16.50;4.10;;;;;;;33.66;36.06;97369.88;5004981;28;20060;-58
2022/06/22 08:24:55;;;;;;;14.82;4.47;;;;;;;34.09;35.89;97363.50;5007126;28;20173;-57
2022/06/22 08:27:23;;;;;;;17.00;4.60;;;;;;;33.93;36.59;97364.94;5005405;28;20045;-58
2022/06/22 08:29:50;;;;;;;13.38;3.80;;;;;;;32.54;38.61;97367.94;5003129;28;20570;-57
2022/06/22 08:32:26;;;;;;;17.63;4.57;;;;;;;34.23;37.01;97365.00;5004196;28;20447;-59
2022/06/22 08:34:54;;;;;;;14.55;4.10;;;;;;;35.31;34.90;97367.66;5003754;28;20605;-59
2022/06/22 08:37:34;;;;;;;20.20;5.18;;;;;;;34.25;35.98;97362.88;5005211;28;20132;-58
2022/06/22 08:40:16;;;;;;;22.98;5.55;;;;;;;36.03;34.07;97367.28;5005598;28;20021;-58
2022/06/22 08:42:54;;;;;;;15.25;4.15;;;;;;;36.47;33.05;97362.13;5004676;28;20128;-57
2022/06/22 08:45:31;;;;;;;15.35;4.07;;;;;;;35.23;36.14;97370.72;5003221;28;20034;-58
2022/06/22 08:48:08;;;;;;;13.48;4.05;;;;;;;36.01;33.13;97369.41;5004366;28;20044;-59
2022/06/22 08:50:58;;;;;;;15.30;4.25;;;;;;;35.58;34.65;97364.44;5002380;28;20377;-59
2022/06/22 08:53:32;;;;;;;19.33;4.15;;;;;;;37.11;32.00;97365.59;5004821;28;20522;-59
2022/06/22 08:56:11;;;;;;;15.90;4.25;;;;;;;34.76;35.14;97363.38;5004407;28;20037;-58
2022/06/22 08:59:19;;;;;;;13.80;3.85;;;;;;;36.40;33.68;97366.06;5020458;28;20033;-58
2022/06/22 09:02:01;;;;;;;15.50;3.95;;;;;;;37.17;33.54;97360.03;4992191;28;20072;-57
2022/06/22 09:04:38;;;;;;;18.33;4.35;;;;;;;38.26;31.61;97359.50;5004823;28;20029;-58
2022/06/22 09:07:18;;;;;;;18.67;4.25;;;;;;;36.09;34.36;97360.06;5005390;28;20129;-60
2022/06/22 09:09:52;;;;;;;23.02;5.10;;;;;;;34.85;34.80;97366.56;5006199;28;20799;-58
2022/06/22 09:12:31;;;;;;;17.63;4.40;;;;;;;35.67;33.12;97369.22;5007090;28;20106;-59
2022/06/22 09:15:26;;;;;;;14.65;4.00;;;;;;;37.31;32.66;97359.66;5009707;28;20107;-58
2022/06/22 09:18:09;;;;;;;23.55;4.50;;;;;;;36.05;34.15;97364.31;5005262;28;20033;-59
2022/06/22 09:20:40;;;;;;;18.70;4.50;;;;;;;35.50;33.97;97371.06;5006801;28;20112;-58
2022/06/22 09:23:59;;;;;;;16.75;4.40;;;;;;;35.57;34.63;97366.31;5010404;28;20785;-59
2022/06/22 09:26:39;;;;;;;18.08;4.25;;;;;;;36.30;33.59;97376.75;4965430;28;20141;-58
2022/06/22 09:29:29;;;;;;;22.10;4.88;;;;;;;34.47;33.95;97381.31;4965352;28;20038;-59
2022/06/22 09:32:19;;;;;;;22.48;4.88;;;;;;;36.21;32.94;97362.72;5001716;28;20205;-60
2022/06/22 09:35:30;;;;;;;19.23;4.70;;;;;;;35.50;34.48;97371.88;5009181;28;20024;-58
2022/06/22 09:38:14;;;;;;;22.23;5.43;;;;;;;34.48;35.55;97367.53;4987719;28;20049;-58
2022/06/22 09:40:50;;;;;;;24.95;5.07;;;;;;;34.41;35.35;97368.69;5008011;28;20037;-59
2022/06/22 09:43:49;;;;;;;19.40;4.57;;;;;;;37.41;31.95;97376.13;5007715;28;20036;-57
2022/06/22 09:46:36;;;;;;;21.20;4.78;;;;;;;36.41;32.97;97375.84;5007890;28;20614;-57
2022/06/22 09:49:23;;;;;;;20.42;4.88;;;;;;;38.24;29.82;97367.91;5006153;28;20103;-58
2022/06/22 09:51:55;;;;;;;18.48;4.45;;;;;;;37.36;31.03;97385.03;5006499;28;20040;-59
2022/06/22 09:58:14;;;;;;;21.23;4.90;;;;;;;35.66;32.56;97383.03;5005904;28;20033;-59
2022/06/22 10:01:11;;;;;;;17.65;4.60;;;;;;;37.51;29.98;97375.44;5006679;28;20116;-59
2022/06/22 10:03:54;;;;;;;22.35;5.03;;;;;;;35.69;32.30;97375.28;5006088;28;20034;-58
2022/06/22 10:06:29;;;;;;;27.48;5.47;;;;;;;34.72;33.24;97373.88;5007891;28;20045;-58
2022/06/22 10:09:12;;;;;;;18.02;4.75;;;;;;;33.82;35.20;97369.28;5007542;28;20017;-60
2022/06/22 10:11:56;;;;;;;20.85;5.05;;;;;;;32.90;36.27;97361.03;5006719;28;20507;-58
2022/06/22 10:14:43;;;;;;;24.38;5.70;;;;;;;32.81;36.87;97364.00;5009003;28;20029;-58
2022/06/22 10:17:51;;;;;;;24.90;5.60;;;;;;;31.81;38.95;97369.16;5008149;28;20046;-58
2022/06/22 10:20:32;;;;;;;29.75;6.32;;;;;;;32.39;39.43;97360.97;4992967;28;20106;-58
2022/06/22 10:23:07;;;;;;;31.42;5.50;;;;;;;31.96;39.80;97367.00;5006049;28;20676;-59
2022/06/22 10:26:01;;;;;;;21.10;4.93;;;;;;;32.23;40.03;97364.19;5006267;28;20034;-59
2022/06/22 10:28:38;;;;;;;26.80;5.78;;;;;;;32.35;41.46;97359.75;5006950;28;20189;-58
2022/06/22 10:31:22;;;;;;;23.05;5.13;;;;;;;31.97;42.50;97367.84;5007690;28;20460;-58
2022/06/22 10:34:25;;;;;;;24.90;5.38;;;;;;;31.88;42.41;97372.66;5006693;28;20048;-58
2022/06/22 10:37:03;;;;;;;22.05;5.35;;;;;;;32.22;42.63;97360.69;5005313;28;20553;-58
2022/06/22 10:39:38;;;;;;;25.33;5.72;;;;;;;32.13;43.06;97363.81;5008042;28;20480;-57
2022/06/22 10:45:22;;;;;;;22.90;4.85;;;;;;;31.94;42.57;97368.25;4978048;28;20083;-59
2022/06/22 10:48:14;;;;;;;27.23;5.68;;;;;;;31.84;42.00;97374.13;5007571;28;20025;-58
2022/06/22 10:51:14;;;;;;;25.65;5.38;;;;;;;31.62;42.40;97381.69;5005096;28;20068;-59
2022/06/22 10:53:55;;;;;;;25.30;5.65;;;;;;;32.08;42.27;97378.78;4984512;28;20041;-58
2022/06/22 10:56:57;;;;;;;22.77;5.18;;;;;;;31.69;41.85;97377.91;5006669;28;20121;-58
2022/06/22 10:59:41;;;;;;;22.70;5.30;;;;;;;32.06;41.56;97378.19;5005983;28;20116;-58
2022/06/22 11:02:45;;;;;;;24.48;5.30;;;;;;;32.57;39.74;97372.88;5005931;28;20037;-60
2022/06/22 11:05:31;;;;;;;27.20;5.22;;;;;;;32.04;41.13;97374.06;4930546;28;20035;-58
2022/06/22 11:08:06;;;;;;;27.38;6.10;;;;;;;31.44;41.78;97379.63;5001082;28;20056;-58
2022/06/22 11:10:53;;;;;;;26.40;4.85;;;;;;;31.89;41.15;97377.81;5007339;28;20522;-58
2022/06/22 11:13:40;;;;;;;23.10;5.40;;;;;;;32.62;40.37;97370.38;5007357;28;20091;-57
2022/06/22 11:16:33;;;;;;;21.65;5.03;;;;;;;31.88;40.61;97369.94;5005539;28;20099;-59
2022/06/22 11:19:29;;;;;;;27.38;5.68;;;;;;;31.60;40.41;97367.59;5005407;28;20033;-58
2022/06/22 11:22:04;;;;;;;24.13;5.10;;;;;;;34.11;36.34;97358.69;5004061;28;20041;-58
2022/06/22 11:25:06;;;;;;;26.23;6.03;;;;;;;33.41;37.23;97355.34;5005354;28;20098;-58
2022/06/22 11:33:32;;;;;;;26.90;5.65;;;;;;;34.67;35.51;97354.75;5008674;28;20024;-58
2022/06/22 11:36:20;;;;;;;28.08;5.50;;;;;;;34.02;37.95;97360.06;5006240;28;20461;-57
2022/06/22 11:39:17;;;;;;;25.67;6.13;;;;;;;32.35;39.76;97356.22;5006742;28;20026;-58
2022/06/22 11:41:52;;;;;;;21.23;4.95;;;;;;;32.46;39.73;97364.47;5004419;28;20121;-58
2022/06/22 11:47:50;;;;;;;20.95;5.22;;;;;;;33.46;38.41;97360.09;5005848;28;20092;-58
2022/06/22 11:50:45;;;;;;;28.98;6.00;;;;;;;32.74;39.97;97360.53;5004320;28;20034;-58
2022/06/22 11:53:39;;;;;;;26.88;5.93;;;;;;;33.48;39.19;97366.09;5005596;28;20033;-59
2022/06/22 11:56:15;;;;;;;26.23;5.72;;;;;;;32.34;39.89;97359.97;5004013;28;20036;-58
2022/06/22 11:59:12;;;;;;;29.60;6.55;;;;;;;32.54;40.53;97357.97;5005952;28;20818;-58
2022/06/22 12:01:38;;;;;;;29.17;5.50;;;;;;;32.94;40.30;97357.66;5002801;28;20159;-57
2022/06/22 12:04:28;;;;;;;23.58;5.75;;;;;;;32.64;40.91;97362.91;5003943;28;20044;-57
2022/06/22 12:06:56;;;;;;;23.80;5.53;;;;;;;32.51;39.04;97353.00;5005739;28;20034;-58
2022/06/22 12:09:39;;;;;;;29.38;5.82;;;;;;;32.21;39.52;97358.19;5004330;28;20030;-58
2022/06/22 12:12:33;;;;;;;24.42;5.97;;;;;;;31.36;40.64;97350.19;5003451;28;20042;-58
2022/06/22 12:15:09;;;;;;;20.85;4.93;;;;;;;33.11;40.11;97341.72;5006056;28;20033;-58
2022/06/22 12:17:43;;;;;;;27.55;6.22;;;;;;;32.56;40.93;97344.25;5008683;28;20045;-58
2022/06/22 12:20:09;;;;;;;37.58;6.88;;;;;;;32.36;41.36;97342.50;5004444;28;20653;-58
2022/06/22 12:22:40;;;;;;;22.90;5.80;;;;;;;32.46;42.66;97348.25;5006846;28;20112;-57
2022/06/22 12:25:20;;;;;;;27.02;5.78;;;;;;;31.80;42.16;97351.31;5005056;28;20349;-58
2022/06/22 12:28:02;;;;;;;28.08;5.65;;;;;;;31.88;42.42;97346.50;5004737;28;20391;-57
2022/06/22 12:30:39;;;;;;;;;;;;;;;32.30;42.30;97346.09;5004660;28;20062;-58
2022/06/22 12:33:18;;;;;;;24.58;5.53;;;;;;;31.37;42.62;97343.78;5006624;28;19967;-58
2022/06/22 12:35:56;;;;;;;26.27;5.78;;;;;;;31.62;42.76;97350.16;5002592;28;20691;-60
2022/06/22 12:38:36;;;;;;;29.98;6.18;;;;;;;31.09;44.10;97356.47;5004454;28;20499;-58